createdAt,value
2023-02-12T00:02:32.916Z,12.60
2023-02-12T00:05:37.225Z,11.80
2023-02-12T00:08:40.870Z,9.43
2023-02-12T00:11:42.150Z,9.53
2023-02-12T00:14:44.687Z,10.43
2023-02-12T00:17:46.650Z,11.43
2023-02-12T00:20:49.141Z,11.30
2023-02-12T00:23:51.715Z,11.15
2023-02-12T00:26:53.006Z,9.77
2023-02-12T00:29:55.523Z,13.90
2023-02-12T00:32:57.441Z,13.32
2023-02-12T00:36:00.067Z,9.10
2023-02-12T00:39:02.799Z,11.15
2023-02-12T00:42:05.576Z,11.30
2023-02-12T00:45:07.726Z,12.20
2023-02-12T00:48:10.950Z,8.63
2023-02-12T00:51:12.698Z,10.68
2023-02-12T00:54:16.015Z,17.73
2023-02-12T00:57:17.274Z,11.30
2023-02-12T01:03:40.442Z,9.40
2023-02-12T01:06:42.976Z,10.27
2023-02-12T01:09:45.501Z,12.85
2023-02-12T01:12:47.613Z,12.17
2023-02-12T01:15:50.155Z,9.80
2023-02-12T01:18:56.177Z,9.35
2023-02-12T01:21:58.854Z,8.57
2023-02-12T01:25:01.426Z,9.88
2023-02-12T01:28:02.850Z,10.80
2023-02-12T01:31:09.978Z,12.02
2023-02-12T01:34:12.315Z,10.07
2023-02-12T01:37:13.623Z,8.50
2023-02-12T01:40:17.306Z,10.60
2023-02-12T01:43:19.841Z,11.80
2023-02-12T01:46:22.379Z,10.55
2023-02-12T01:49:29.378Z,10.93
2023-02-12T01:52:33.887Z,9.80
2023-02-12T01:55:35.431Z,10.00
2023-02-12T01:58:40.959Z,10.63
2023-02-12T02:01:43.506Z,11.45
2023-02-12T02:04:50.332Z,11.40
2023-02-12T02:07:54.359Z,9.60
2023-02-12T02:10:56.997Z,10.77
2023-02-12T02:14:16.328Z,9.87
2023-02-12T02:17:34.134Z,7.75
2023-02-12T02:20:56.137Z,10.00
2023-02-12T02:27:42.032Z,9.30
2023-02-12T02:30:51.630Z,7.77
2023-02-12T02:33:58.299Z,9.15
2023-02-12T02:37:11.642Z,9.90
2023-02-12T02:40:17.735Z,8.02
2023-02-12T02:43:27.169Z,8.30
2023-02-12T02:46:34.047Z,7.67
2023-02-12T02:49:41.955Z,11.25
2023-02-12T02:52:49.307Z,10.30
2023-02-12T02:55:55.714Z,9.48
2023-02-12T02:59:02.496Z,9.27
2023-02-12T03:02:08.770Z,8.93
2023-02-12T03:05:17.933Z,9.25
2023-02-12T03:08:24.078Z,10.50
2023-02-12T03:11:28.722Z,8.32
2023-02-12T03:14:33.974Z,8.00
2023-02-12T03:17:41.837Z,9.43
2023-02-12T03:20:48.525Z,11.93
2023-02-12T03:23:54.818Z,8.10
2023-02-12T03:27:04.057Z,8.82
2023-02-12T03:30:09.297Z,13.23
2023-02-12T03:33:21.822Z,9.97
2023-02-12T03:36:34.953Z,10.13
2023-02-12T03:39:48.881Z,9.70
2023-02-12T03:42:58.928Z,8.45
2023-02-12T03:46:07.819Z,9.70
2023-02-12T03:49:16.975Z,8.27
2023-02-12T03:52:18.326Z,8.95
2023-02-12T03:55:21.026Z,9.48
2023-02-12T03:58:29.097Z,9.48
2023-02-12T04:01:32.780Z,10.35
2023-02-12T04:08:00.200Z,7.88
2023-02-12T04:11:13.236Z,8.60
2023-02-12T04:14:25.763Z,10.63
2023-02-12T04:17:35.683Z,9.40
2023-02-12T04:20:48.718Z,11.37
2023-02-12T04:24:04.203Z,10.15
2023-02-12T04:27:14.697Z,9.82
2023-02-12T04:30:25.889Z,8.20
2023-02-12T04:33:32.612Z,9.93
2023-02-12T04:36:43.078Z,10.83
2023-02-12T04:39:47.028Z,10.82
2023-02-12T04:42:50.423Z,10.90
2023-02-12T04:45:53.222Z,10.40
2023-02-12T04:48:58.114Z,13.65
2023-02-12T04:52:01.293Z,13.27
2023-02-12T04:55:02.668Z,14.57
2023-02-12T04:58:05.508Z,12.10
2023-02-12T05:01:07.128Z,11.10
2023-02-12T05:04:13.389Z,8.93
2023-02-12T05:07:16.592Z,8.30
2023-02-12T05:10:18.380Z,10.05
2023-02-12T05:13:20.882Z,10.57
2023-02-12T05:16:23.780Z,7.80
2023-02-12T05:19:25.199Z,8.13
2023-02-12T05:22:28.464Z,8.30
2023-02-12T05:25:31.152Z,10.65
2023-02-12T05:28:33.838Z,9.95
2023-02-12T05:31:36.741Z,10.40
2023-02-12T05:34:38.228Z,9.10
2023-02-12T05:37:41.394Z,9.43
2023-02-12T05:40:42.907Z,7.00
2023-02-12T05:43:48.492Z,7.88
2023-02-12T05:46:52.182Z,8.27
2023-02-12T05:49:53.548Z,8.80
2023-02-12T05:52:56.770Z,8.53
2023-02-12T05:56:08.230Z,8.05
2023-02-12T06:02:36.409Z,10.25
2023-02-12T06:05:37.702Z,10.07
2023-02-12T06:08:41.438Z,8.23
2023-02-12T06:11:42.935Z,13.20
2023-02-12T06:14:45.464Z,8.80
2023-02-12T06:17:47.987Z,8.77
2023-02-12T06:20:49.303Z,9.48
2023-02-12T06:23:52.798Z,9.13
2023-02-12T06:26:54.117Z,10.02
2023-02-12T06:29:56.680Z,8.95
2023-02-12T06:32:59.474Z,9.35
2023-02-12T06:36:03.147Z,10.65
2023-02-12T06:39:06.826Z,12.87
2023-02-12T06:42:08.101Z,11.25
2023-02-12T06:45:10.956Z,10.45
2023-02-12T06:48:13.560Z,8.27
2023-02-12T06:51:16.536Z,10.05
2023-02-12T06:54:19.698Z,8.03
2023-02-12T06:57:20.979Z,10.65
2023-02-12T07:00:24.356Z,9.60
2023-02-12T07:03:26.933Z,9.25
2023-02-12T07:06:29.756Z,10.80
2023-02-12T07:09:33.125Z,11.23
2023-02-12T07:12:34.418Z,10.82
2023-02-12T07:15:40.356Z,10.30
2023-02-12T07:18:43.849Z,9.85
2023-02-12T07:21:45.197Z,9.43
2023-02-12T07:24:53.711Z,11.40
2023-02-12T07:27:55.025Z,13.20
2023-02-12T07:30:57.619Z,11.93
2023-02-12T07:34:01.679Z,10.15
2023-02-12T07:37:02.895Z,10.13
2023-02-12T07:40:07.755Z,15.70
2023-02-12T07:43:09.034Z,7.88
2023-02-12T07:46:13.496Z,11.77
2023-02-12T07:49:17.435Z,10.80
2023-02-12T07:52:19.963Z,10.43
2023-02-12T07:55:23.192Z,9.33
2023-02-12T07:58:24.426Z,10.55
2023-02-12T08:01:28.559Z,12.35
2023-02-12T08:04:30.069Z,9.32
2023-02-12T08:07:32.715Z,11.23
2023-02-12T08:10:35.877Z,11.77
2023-02-12T08:13:37.544Z,11.30
2023-02-12T08:16:42.520Z,11.18
2023-02-12T08:19:43.788Z,11.68
2023-02-12T08:22:46.298Z,8.77
2023-02-12T08:25:49.503Z,8.70
2023-02-12T08:28:52.806Z,10.73
2023-02-12T08:31:57.690Z,11.35
2023-02-12T08:34:59.054Z,10.73
2023-02-12T08:38:01.581Z,7.57
2023-02-12T08:41:07.386Z,10.67
2023-02-12T08:44:10.218Z,9.55
2023-02-12T08:47:12.743Z,9.65
2023-02-12T08:50:14.271Z,8.27
2023-02-12T08:53:16.923Z,13.27
2023-02-12T08:56:20.554Z,8.97
2023-02-12T08:59:21.876Z,9.60
2023-02-12T09:05:45.396Z,11.77
2023-02-12T09:08:46.782Z,10.10
2023-02-12T09:11:50.287Z,12.67
2023-02-12T09:14:51.552Z,9.50
2023-02-12T09:17:54.104Z,10.75
2023-02-12T09:20:55.571Z,10.95
2023-02-12T09:23:58.072Z,13.03
2023-02-12T09:27:01.428Z,14.77
2023-02-12T09:30:03.341Z,11.80
2023-02-12T09:33:06.174Z,14.07
2023-02-12T09:36:10.169Z,16.55
2023-02-12T09:39:12.725Z,13.27
2023-02-12T09:42:36.504Z,14.37
2023-02-12T09:45:44.287Z,11.65
2023-02-12T09:48:57.839Z,15.02
2023-02-12T09:52:00.205Z,18.83
2023-02-12T09:55:03.258Z,14.13
2023-02-12T09:58:14.455Z,17.67
2023-02-12T10:01:19.167Z,16.00
2023-02-12T10:04:22.174Z,12.95
2023-02-12T10:07:38.661Z,17.05
2023-02-12T10:10:51.559Z,15.17
2023-02-12T10:14:07.284Z,16.20
2023-02-12T10:17:17.361Z,15.25
2023-02-12T10:20:38.476Z,12.93
2023-02-12T10:23:57.861Z,13.80
2023-02-12T10:27:04.818Z,13.33
2023-02-12T10:30:18.200Z,14.33
2023-02-12T10:33:28.072Z,13.85
2023-02-12T10:36:40.563Z,14.80
2023-02-12T10:39:48.024Z,14.63
2023-02-12T10:42:53.068Z,13.77
2023-02-12T10:45:55.276Z,13.73
2023-02-12T10:49:00.135Z,11.93
2023-02-12T10:52:12.354Z,15.02
2023-02-12T10:55:27.206Z,13.38
2023-02-12T10:58:30.248Z,12.77
2023-02-12T11:04:59.306Z,13.73
2023-02-12T11:08:02.242Z,12.85
2023-02-12T11:11:07.283Z,12.25
2023-02-12T11:14:22.090Z,10.93
2023-02-12T11:17:27.924Z,11.60
2023-02-12T11:20:32.854Z,11.98
2023-02-12T11:23:38.320Z,11.75
2023-02-12T11:26:41.062Z,11.38
2023-02-12T11:29:42.978Z,8.83
2023-02-12T11:32:47.122Z,16.97
2023-02-12T11:35:53.765Z,11.98
2023-02-12T11:38:58.805Z,10.10
2023-02-12T11:42:05.294Z,11.30
2023-02-12T11:45:16.425Z,11.20
2023-02-12T11:48:24.022Z,13.50
2023-02-12T11:51:28.810Z,12.10
2023-02-12T11:54:37.824Z,10.68
2023-02-12T11:57:45.653Z,10.73
2023-02-12T12:00:55.536Z,11.00
2023-02-12T12:04:05.280Z,11.20
2023-02-12T12:07:14.551Z,10.25
2023-02-12T12:10:25.580Z,10.02
2023-02-12T12:13:33.002Z,10.27
2023-02-12T12:17:00.812Z,11.90
2023-02-12T12:20:06.411Z,11.20
2023-02-12T12:23:15.287Z,11.38
2023-02-12T12:26:23.618Z,9.65
2023-02-12T12:29:33.042Z,10.07
2023-02-12T12:32:39.625Z,9.23
2023-02-12T12:35:54.578Z,13.30
2023-02-12T12:39:04.998Z,11.63
2023-02-12T12:42:37.312Z,10.98
2023-02-12T12:46:04.435Z,10.38
2023-02-12T12:49:31.235Z,10.80
2023-02-12T12:52:52.225Z,8.80
2023-02-12T13:00:09.000Z,8.10
2023-02-12T13:03:48.086Z,8.77
2023-02-12T13:07:00.643Z,9.02
2023-02-12T13:10:19.321Z,7.18
2023-02-12T13:13:30.123Z,6.97
2023-02-12T13:16:38.619Z,6.73
2023-02-12T13:19:53.064Z,8.00
2023-02-12T13:22:59.892Z,7.30
2023-02-12T13:26:12.068Z,5.75
2023-02-12T13:29:19.014Z,7.18
2023-02-12T13:32:27.105Z,6.37
2023-02-12T13:35:30.885Z,5.53
2023-02-12T13:38:38.773Z,7.32
2023-02-12T13:41:46.665Z,9.43
2023-02-12T13:44:57.305Z,7.80
2023-02-12T13:48:26.019Z,5.70
2023-02-12T13:51:40.126Z,5.18
2023-02-12T13:54:55.162Z,8.88
2023-02-12T13:58:31.031Z,5.90
2023-02-12T14:01:44.341Z,5.68
2023-02-12T14:04:57.087Z,4.67
2023-02-12T14:08:06.074Z,7.03
2023-02-12T14:11:11.292Z,6.00
2023-02-12T14:14:14.430Z,6.30
2023-02-12T14:17:41.894Z,5.25
2023-02-12T14:20:44.522Z,5.27
2023-02-12T14:23:47.669Z,6.35
2023-02-12T14:26:49.225Z,7.65
2023-02-12T14:30:03.432Z,6.72
2023-02-12T14:33:24.951Z,6.43
2023-02-12T14:44:44.943Z,6.72
2023-02-12T14:47:50.568Z,7.95
2023-02-12T14:50:54.017Z,8.40
2023-02-12T14:53:56.504Z,7.13
2023-02-12T14:57:02.322Z,7.90
2023-02-12T15:00:22.690Z,6.65
2023-02-12T15:03:31.301Z,9.20
2023-02-12T15:06:42.396Z,8.57
2023-02-12T15:09:51.163Z,8.90
2023-02-12T15:13:02.733Z,7.07
2023-02-12T15:16:08.537Z,7.80
2023-02-12T15:22:43.606Z,9.55
2023-02-12T15:25:46.189Z,7.40
2023-02-12T15:28:50.193Z,7.40
2023-02-12T15:31:55.165Z,7.43
2023-02-12T15:34:58.018Z,6.47
2023-02-12T15:38:01.160Z,7.20
2023-02-12T15:41:05.784Z,6.80
2023-02-12T15:44:27.258Z,7.00
2023-02-12T15:47:28.569Z,5.15
2023-02-12T15:50:32.937Z,7.07
2023-02-12T15:53:35.987Z,6.32
2023-02-12T15:56:42.139Z,5.88
2023-02-12T15:59:44.829Z,6.70
2023-02-12T16:02:52.187Z,4.82
2023-02-12T16:05:58.801Z,6.23
2023-02-12T16:09:04.219Z,5.38
2023-02-12T16:12:14.110Z,6.18
2023-02-12T16:15:29.167Z,5.78
2023-02-12T16:18:31.258Z,5.72
2023-02-12T16:21:36.465Z,4.93
2023-02-12T16:24:51.485Z,5.28
2023-02-12T16:27:59.382Z,6.38
2023-02-12T16:34:33.436Z,6.90
2023-02-12T16:37:45.762Z,6.00
2023-02-12T16:41:16.275Z,6.28
2023-02-12T16:44:26.639Z,5.63
2023-02-12T16:47:29.334Z,6.68
2023-02-12T16:50:32.846Z,6.53
2023-02-12T16:53:44.089Z,5.60
2023-02-12T16:56:45.416Z,6.05
2023-02-12T16:59:48.699Z,6.25
2023-02-12T17:02:51.682Z,4.93
2023-02-12T17:05:54.768Z,6.35
2023-02-12T17:08:56.677Z,6.50
2023-02-12T17:11:59.241Z,6.15
2023-02-12T17:15:03.937Z,6.38
2023-02-12T17:18:06.578Z,7.38
2023-02-12T17:21:16.859Z,7.40
2023-02-12T17:24:21.827Z,5.33
2023-02-12T17:30:45.468Z,7.80
2023-02-12T17:33:48.129Z,6.60
2023-02-12T17:36:49.681Z,7.53
2023-02-12T17:43:13.834Z,6.82
2023-02-12T17:46:21.114Z,7.85
2023-02-12T17:49:22.440Z,7.18
2023-02-12T17:52:25.031Z,7.25
2023-02-12T17:55:27.541Z,7.93
2023-02-12T17:58:28.837Z,7.15
2023-02-12T18:01:32.108Z,7.60
2023-02-12T18:04:35.567Z,7.07
2023-02-12T18:07:38.384Z,8.85
2023-02-12T18:10:41.917Z,7.97
2023-02-12T18:13:44.405Z,8.52
2023-02-12T18:16:47.805Z,9.93
2023-02-12T18:19:50.537Z,10.25
2023-02-12T18:22:51.904Z,11.77
2023-02-12T18:25:54.463Z,9.60
2023-02-12T18:28:57.585Z,10.38
2023-02-12T18:32:01.000Z,10.70
2023-02-12T18:35:03.637Z,11.70
2023-02-12T18:38:05.010Z,11.10
2023-02-12T18:41:08.604Z,10.60
2023-02-12T18:44:09.945Z,9.98
2023-02-12T18:50:33.043Z,12.15
2023-02-12T18:53:36.760Z,11.60
2023-02-12T18:56:40.323Z,13.53
2023-02-12T18:59:43.149Z,11.75
2023-02-12T19:02:46.450Z,11.57
2023-02-12T19:05:49.231Z,11.90
2023-02-12T19:08:54.022Z,12.82
2023-02-12T19:11:58.951Z,11.03
2023-02-12T19:15:00.227Z,10.18
2023-02-12T19:18:03.442Z,12.90
2023-02-12T19:21:07.570Z,11.77
2023-02-12T19:24:13.017Z,9.43
2023-02-12T19:27:15.605Z,10.43
2023-02-12T19:30:16.916Z,10.77
2023-02-12T19:33:20.151Z,11.18
2023-02-12T19:36:22.716Z,9.63
2023-02-12T19:39:24.535Z,10.52
2023-02-12T19:42:27.374Z,9.83
2023-02-12T19:45:28.727Z,8.90
2023-02-12T19:48:32.417Z,10.67
2023-02-12T19:51:33.800Z,9.43
2023-02-12T19:54:35.430Z,11.10
2023-02-12T19:57:39.073Z,9.50
2023-02-12T20:00:40.388Z,10.93
2023-02-12T20:03:43.937Z,10.95
2023-02-12T20:06:46.345Z,10.80
2023-02-12T20:09:51.479Z,10.25
2023-02-12T20:12:54.007Z,9.73
2023-02-12T20:15:55.279Z,10.20
2023-02-12T20:19:02.118Z,9.75
2023-02-12T20:22:03.843Z,9.48
2023-02-12T20:25:07.124Z,8.80
2023-02-12T20:28:09.791Z,11.00
2023-02-12T20:31:13.122Z,9.60
2023-02-12T20:34:18.350Z,10.77
2023-02-12T20:37:19.682Z,9.85
2023-02-12T20:40:22.238Z,9.77
2023-02-12T20:43:24.783Z,12.95
2023-02-12T20:46:27.313Z,12.83
2023-02-12T20:49:30.561Z,13.70
2023-02-12T20:52:32.074Z,14.07
2023-02-12T20:55:34.709Z,13.77
2023-02-12T20:58:37.608Z,13.88
2023-02-12T21:01:42.290Z,14.70
2023-02-12T21:04:45.718Z,16.40
2023-02-12T21:07:48.332Z,16.42
2023-02-12T21:10:50.870Z,16.60
2023-02-12T21:14:02.143Z,16.38
2023-02-12T21:17:05.275Z,16.03
2023-02-12T21:20:09.487Z,16.58
2023-02-12T21:23:10.745Z,19.90
2023-02-12T21:26:15.188Z,17.13
2023-02-12T21:29:18.183Z,18.80
2023-02-12T21:32:19.599Z,19.30
2023-02-12T21:35:22.928Z,18.52
2023-02-12T21:38:24.251Z,20.05
2023-02-12T21:41:28.527Z,18.42
2023-02-12T21:44:32.155Z,20.17
2023-02-12T21:47:34.514Z,19.57
2023-02-12T21:50:37.807Z,23.17
2023-02-12T21:53:39.059Z,21.00
2023-02-12T21:56:42.740Z,20.60
2023-02-12T21:59:44.051Z,22.10
2023-02-12T22:02:46.624Z,23.07
2023-02-12T22:05:49.947Z,22.33
2023-02-12T22:08:51.755Z,24.00
2023-02-12T22:11:54.324Z,25.88
2023-02-12T22:14:55.592Z,24.60
2023-02-12T22:17:58.174Z,27.23
2023-02-12T22:21:01.208Z,21.90
2023-02-12T22:24:05.444Z,24.27
2023-02-12T22:27:07.974Z,25.42
2023-02-12T22:30:10.049Z,24.67
2023-02-12T22:33:12.971Z,25.93
2023-02-12T22:36:18.378Z,26.40
2023-02-12T22:39:20.587Z,29.55
2023-02-12T22:42:23.145Z,26.25
2023-02-12T22:45:24.470Z,27.38
2023-02-12T22:48:28.712Z,26.00
2023-02-12T22:54:52.774Z,26.95
2023-02-12T22:57:55.340Z,27.35
2023-02-12T23:00:56.950Z,22.73
2023-02-12T23:03:59.725Z,23.60
2023-02-12T23:07:03.357Z,26.73
2023-02-12T23:10:05.740Z,23.63
2023-02-12T23:16:27.913Z,23.02
2023-02-12T23:19:30.709Z,25.53
2023-02-12T23:22:32.750Z,23.23
2023-02-12T23:25:35.358Z,22.13
2023-02-12T23:28:38.025Z,24.63
2023-02-12T23:31:39.620Z,19.58
2023-02-12T23:34:42.617Z,22.03
2023-02-12T23:37:45.781Z,19.33
2023-02-12T23:40:47.382Z,18.95
2023-02-12T23:43:49.927Z,14.25
2023-02-12T23:46:53.148Z,16.05
2023-02-12T23:49:55.725Z,13.67
2023-02-12T23:53:00.142Z,12.43
2023-02-12T23:56:01.490Z,13.70
2023-02-12T23:59:04.368Z,13.00
